Time;durP1;ratioP1;P1;durP2;ratioP2;P2;SDS_P1;SDS_P2;PMS_P1;PMS_P2;Temp;Humidity;BMP_temperature;BMP_pressure;BME280_temperature;BME280_humidity;BME280_pressure;Samples;Min_cycle;Max_cycle;Signal;HPM_P1;HPM_P2
2021/03/23 08:07:48;;;;;;;4.93;3.85;;;;;;;;;;10598017;27;20035;-86
2021/03/23 10:16:48;;;;;;;13.80;11.10;;;;;;;;;;10545198;28;20043;-88
2021/03/23 10:28:29;;;;;;;10.95;9.63;;;;;;;;;;10523812;28;20028;-88
2021/03/23 10:45:14;;;;;;;10.73;8.33;;;;;;;;;;10569371;28;20028;-86
2021/03/23 10:50:18;;;;;;;12.63;7.45;;;;;;;;;;10603660;22;20056;-86
2021/03/23 10:55:33;;;;;;;10.30;7.53;;;;;;;;;;10607484;28;20047;-85
2021/03/23 11:00:36;;;;;;;11.75;8.07;;;;;;;;;;10583327;28;20064;-86
2021/03/23 11:05:49;;;;;;;11.45;8.07;;;;;;;;;;10580991;28;20031;-87
2021/03/23 11:10:50;;;;;;;10.65;7.55;;;;;;;;;;10580401;28;20028;-86
2021/03/23 11:16:13;;;;;;;13.00;11.68;;;;;;;;;;10583042;28;20043;-86
2021/03/23 11:21:15;;;;;;;11.02;7.80;;;;;;;;;;10579876;28;20032;-86
2021/03/23 11:26:22;;;;;;;9.35;6.70;;;;;;;;;;10584883;28;20103;-85
2021/03/23 11:31:28;;;;;;;7.88;6.53;;;;;;;;;;10581707;28;20110;-86
2021/03/23 11:36:30;;;;;;;9.48;6.30;;;;;;;;;;10582072;28;20039;-86
2021/03/23 11:41:35;;;;;;;8.40;5.53;;;;;;;;;;10586555;28;20054;-84
2021/03/23 11:46:52;;;;;;;10.63;7.00;;;;;;;;;;10595074;28;20040;-86
2021/03/23 11:51:53;;;;;;;6.45;5.57;;;;;;;;;;10592118;28;20050;-85
2021/03/23 11:56:54;;;;;;;8.48;5.95;;;;;;;;;;10601593;28;20035;-85
2021/03/23 12:01:55;;;;;;;7.80;6.35;;;;;;;;;;10599318;28;20382;-85
2021/03/23 12:07:00;;;;;;;7.32;5.78;;;;;;;;;;10593483;28;20054;-85
2021/03/23 12:12:10;;;;;;;11.90;5.93;;;;;;;;;;10593105;28;20038;-85
2021/03/23 12:17:13;;;;;;;7.38;5.65;;;;;;;;;;10598808;28;20122;-86
2021/03/23 12:22:15;;;;;;;8.55;7.22;;;;;;;;;;10598824;28;20099;-85
2021/03/23 12:27:16;;;;;;;7.68;6.10;;;;;;;;;;10596495;28;20036;-82
2021/03/23 12:32:18;;;;;;;6.60;5.20;;;;;;;;;;10597976;28;20127;-85
2021/03/23 12:37:20;;;;;;;8.48;6.30;;;;;;;;;;10599158;28;20028;-86
2021/03/23 12:42:23;;;;;;;9.63;6.50;;;;;;;;;;10598176;28;20035;-87
2021/03/23 12:47:24;;;;;;;9.18;6.25;;;;;;;;;;10593719;28;20032;-85
2021/03/23 12:52:27;;;;;;;5.90;5.20;;;;;;;;;;10590306;28;20451;-87
2021/03/23 12:57:38;;;;;;;9.38;7.28;;;;;;;;;;10591462;28;20034;-85
2021/03/23 13:02:40;;;;;;;8.45;5.60;;;;;;;;;;10585021;28;20034;-87
2021/03/23 13:07:41;;;;;;;6.38;5.28;;;;;;;;;;10583837;28;20550;-86
2021/03/23 13:12:42;;;;;;;7.00;5.90;;;;;;;;;;10589302;28;20461;-85
2021/03/23 13:17:43;;;;;;;7.70;6.68;;;;;;;;;;10583478;28;20031;-86
2021/03/23 13:22:47;;;;;;;8.52;7.57;;;;;;;;;;10589105;28;20386;-86
2021/03/23 13:27:50;;;;;;;6.97;5.95;;;;;;;;;;10587231;28;20032;-86
2021/03/23 13:32:54;;;;;;;8.88;6.50;;;;;;;;;;10595454;28;20039;-86
2021/03/23 13:37:55;;;;;;;8.68;6.07;;;;;;;;;;10601263;28;20055;-87
2021/03/23 13:43:00;;;;;;;6.10;5.45;;;;;;;;;;10596814;28;20504;-86
2021/03/23 13:48:01;;;;;;;7.15;5.70;;;;;;;;;;10612404;28;20051;-86
2021/03/23 13:53:03;;;;;;;6.55;5.47;;;;;;;;;;10596726;28;20036;-86
2021/03/23 13:58:09;;;;;;;7.15;5.07;;;;;;;;;;10603043;28;20035;-85
2021/03/23 14:03:13;;;;;;;6.35;5.63;;;;;;;;;;10620615;28;20091;-86
2021/03/23 14:08:29;;;;;;;;;;;;;;;;;;;;;
2021/03/23 14:13:30;;;;;;;8.60;7.72;;;;;;;;;;10617865;28;20030;-86
2021/03/23 14:18:31;;;;;;;6.72;5.60;;;;;;;;;;10597474;28;20055;-87
2021/03/23 14:23:42;;;;;;;6.80;6.10;;;;;;;;;;10598368;28;20031;-86
2021/03/23 14:28:59;;;;;;;8.35;6.10;;;;;;;;;;10598452;28;20035;-86
2021/03/23 14:34:00;;;;;;;7.43;6.35;;;;;;;;;;10601296;28;20039;-86
2021/03/23 14:39:35;;;;;;;7.65;6.03;;;;;;;;;;10599616;28;20035;-86
2021/03/23 14:45:12;;;;;;;;;;;;;;;;;;;;;
2021/03/23 16:15:10;;;;;;;17.85;16.10;;;;;;;;;;10497146;28;20032;-86
2021/03/23 16:43:40;;;;;;;17.97;15.37;;;;;;;;;;10407539;28;20026;-86
2021/03/23 16:49:02;;;;;;;18.83;16.13;;;;;;;;;;10358198;28;20052;-87
2021/03/23 16:54:23;;;;;;;20.75;16.27;;;;;;;;;;10518632;28;20087;-86
2021/03/23 16:59:24;;;;;;;18.70;16.75;;;;;;;;;;10532467;28;20057;-86
2021/03/23 17:10:36;;;;;;;16.80;15.00;;;;;;;;;;10493034;28;20024;-87
